Terminal Aerodrome Forecast
Issued by NWS Charleston, WV

Current Version | Previous Version | Graphics & Text | Print | Product List | Glossary On
Versions: 1 2 3 4 5 6 7 8 9 10 11 12 13 14 15 16 17 18 19 20 21 22 23 24 25
000
FTUS41 KRLX 181042 AAB
TAFCRW
TAF AMD
KCRW 181042Z 1811/1906 00000KT 6SM BR SCT001
      TEMPO 1811/1813 00000KT 3SM BR SCT001
     FM181400 20005KT P6SM SKC=

USA.gov is the U.S. government's official web portal to all federal, state and local government web resources and services.